• Join FlightAware (Why Join?)
  • Login
  • US Flag 
02:17AM EST


 

Airport Tracker/Info


-or-


 

Live Flight TrackerFlight Track Log ✈ FFT861 ✈ 06-May-2013 ✈ KDEN - KPHX

Flight Track Log - Related Links

Times and Time Zones

All times are in EDT time to prevent confusion due to time zone crossing. See the FFT861 flight status page for this flight to view local times or setup timezone preferences in your user account.

Time Position Orientation Groundspeed Altitude Reporting Facility
EDT Latitude Longitude Course Direction KTS MPH feet Rate Location/Type
11:15PM 39.8167 -104.8500 255° West 269 310 8,700  Level Denver TRACON
11:16PM 39.7519 -104.8714 194° South 283 326 10,900 2,514 Climbing Denver Center
11:17PM 39.6647 -104.8719 180° South 314 361 13,100 1,918 Climbing Denver Center
11:18PM 39.5792 -104.9319 208° Southwest 357 411 14,800 1,707 Climbing Denver Center
11:19PM 39.4969 -104.4891 212° Southwest  Level FlightAware Approximate
11:19PM 39.4831 -105.0297 218° Southwest 407 468 16,600  Level Denver Center
11:20PM 39.3897 -105.1258 219° Southwest 430 495 18,700 1,869 Climbing Denver Center
11:21PM 39.2950 -105.2236 219° Southwest 436 502 20,400 1,756 Climbing Denver Center
11:22PM 39.1975 -105.3214 218° Southwest 447 514 22,300 1,561 Climbing Denver Center
11:23PM 39.0981 -105.4217 218° Southwest 443 510 23,600 1,328 Climbing Denver Center
11:24PM 38.9872 -105.5350 218° Southwest 462 532 25,000 1,328 Climbing Denver Center
11:25PM 38.8872 -105.6347 218° Southwest 474 545 26,300 1,366 Climbing Denver Center
11:26PM 38.7856 -105.7375 218° Southwest 475 547 27,800 2,049 Climbing Denver Center
11:27PM 38.6858 -105.8358 218° Southwest 452 520 30,500 2,066 Climbing Denver Center
11:28PM 38.5842 -105.9381 218° Southwest 447 514 32,000 1,317 Climbing Denver Center
11:29PM 38.4750 -106.0469 218° Southwest 447 514 33,200 1,220 Climbing Denver Center
11:30PM 38.3794 -106.1419 218° Southwest 452 520 34,500 1,328 Climbing Denver Center
11:31PM 38.2900 -106.2289 217° Southwest 448 516 35,900 738 Climbing Denver Center
11:32PM 38.1964 -106.3197 217° Southwest 426 490 36,000 49 Climbing Denver Center
11:33PM 38.0808 -106.4350 218° Southwest 430 495 36,000  Level Denver Center
11:34PM 37.9867 -106.5269 218° Southwest 426 490 36,000  Level Denver Center
11:35PM 37.8961 -106.6144 217° Southwest 426 490 36,000  Level Denver Center
11:36PM 37.7961 -106.7119 218° Southwest 426 490 36,000  Level Denver Center
11:37PM 37.7061 -106.7981 217° Southwest 426 490 36,000  Level Denver Center
11:38PM 37.6156 -106.8875 218° Southwest 432 497 36,000  Level Denver Center
11:39PM 37.5117 -106.9872 217° Southwest 421 484 36,000  Level Denver Center
11:40PM 37.4194 -107.0728 216° Southwest 426 490 36,000  Level Denver Center
11:41PM 37.3153 -107.1736 218° Southwest 424 488 36,000  Level Denver Center
11:42PM 37.2258 -107.2589 217° Southwest 421 484 36,000  Level Denver Center
11:43PM 37.1364 -107.3422 217° Southwest 420 483 36,000  Level Denver Center
11:44PM 37.0336 -107.4408 217° Southwest 418 481 36,000 49 Level Denver Center
11:45PM 36.9425 -107.5264 217° Southwest 426 490 36,100  Climbing Denver Center
11:46PM 36.8356 -107.6253 217° Southwest 426 490 36,000 -49 Descending Denver Center
11:47PM 36.7492 -107.7078 217° Southwest 411 473 36,000  Level Denver Center
11:48PM 36.6614 -107.7886 216° Southwest 410 472 36,000  Level Denver Center
11:49PM 36.5600 -107.8836 217° Southwest 409 471 36,000  Level Denver Center
11:50PM 36.4742 -107.9631 217° Southwest 403 464 36,000  Level Denver Center
11:51PM 36.3736 -108.0561 217° Southwest 402 463 36,000  Level Denver Center
11:53PM 36.2869 -108.1367 217° Southwest 405 466 36,000  Level Denver Center
11:54PM 36.1686 -108.2444 216° Southwest 410 472 36,000  Level Denver Center
11:55PM 36.0789 -108.3283 217° Southwest 416 479 36,000  Level Albuquerque Center
11:56PM 35.9756 -108.4219 216° Southwest 412 474 36,000  Level Albuquerque Center
11:57PM 35.8878 -108.5017 216° Southwest 408 470 36,000  Level Albuquerque Center
11:58PM 35.8011 -108.5803 216° Southwest 403 464 36,000  Level Albuquerque Center
11:59PM 35.7147 -108.6589 216° Southwest 401 461 36,000  Level Albuquerque Center
12:00AM 35.6125 -108.7514 216° Southwest 405 466 36,000 49 Level Albuquerque Center
12:01AM 35.5231 -108.8306 216° Southwest 408 470 36,100 49 Climbing Albuquerque Center
12:02AM 35.4406 -108.9156 220° Southwest 407 468 36,100 -49 Level Albuquerque Center
12:03AM 35.3569 -109.0300 228° Southwest 400 460 36,000 -49 Descending Albuquerque Center
12:04AM 35.2828 -109.1239 226° Southwest 400 460 36,000  Level Albuquerque Center
12:05AM 35.1969 -109.2361 227° Southwest 403 464 36,000  Level Albuquerque Center
12:06AM 35.1214 -109.3317 226° Southwest 406 467 36,000  Level Albuquerque Center
12:07AM 35.0458 -109.4283 226° Southwest 409 471 36,000  Level Albuquerque Center
12:08AM 34.9581 -109.5364 225° Southwest 403 464 36,000  Level Albuquerque Center
12:09AM 34.8875 -109.6361 229° Southwest 403 464 36,000  Level Albuquerque Center
12:10AM 34.8328 -109.7467 239° Southwest 399 459 36,000  Level Albuquerque Center
12:11AM 34.7664 -109.8758 238° Southwest 401 461 36,000  Level Albuquerque Center
12:12AM 34.7100 -109.9847 238° Southwest 400 460 36,000  Level Albuquerque Center
12:13AM 34.6539 -110.0919 238° Southwest 396 456 36,000  Level Albuquerque Center
12:14AM 34.5917 -110.2244 240° Southwest 399 459 36,000 -885 Level Albuquerque Center
12:15AM 34.5325 -110.3275 235° Southwest 392 451 34,200 -2,213 Descending Albuquerque Center
12:16AM 34.4797 -110.4333 239° Southwest 397 457 31,500 -2,459 Descending Albuquerque Center
12:17AM 34.4219 -110.5469 238° Southwest 398 458 29,200 -2,262 Descending Albuquerque Center
12:18AM 34.3636 -110.6567 237° Southwest 391 450 26,900 -2,262 Descending Albuquerque Center
12:19AM 34.3033 -110.7614 235° Southwest 384 442 24,600 -2,410 Descending Albuquerque Center
12:20AM 34.2361 -110.8858 237° Southwest 376 433 22,000 -2,115 Descending Albuquerque Center
12:21AM 34.1839 -110.9828 237° Southwest 357 411 20,300 -1,835 Descending Albuquerque Center
12:22AM 34.1361 -111.0739 238° Southwest 332 382 18,300 -1,835 Descending Albuquerque Center
12:23AM 34.0786 -111.1503 228° Southwest 311 358 16,600 -1,525 Descending Albuquerque Center
12:24AM 34.0197 -111.2278 227° Southwest 311 358 15,200 -1,426 Descending Albuquerque Center
12:25AM 33.9619 -111.3019 227° Southwest 306 352 13,700 -1,426 Descending Albuquerque Center
12:26AM 33.9058 -111.3747 227° Southwest 297 342 12,300 -1,328 Descending Albuquerque Center
12:27AM 33.8481 -111.4342 221° Southwest 276 318 11,000 -1,289 Descending Albuquerque Center
12:28AM 33.7872 -111.4853 215° Southwest 268 308 9,700 -1,190 Descending Albuquerque Center
12:29AM 33.7261 -111.5389 216° Southwest 269 310 8,600 -836 Descending Albuquerque Center
12:30AM 33.6669 -111.5900 216° Southwest 263 303 8,000 -639 Descending Albuquerque Center
12:31AM 33.6142 -111.6333 214° Southwest 236 272 7,300 -893 Descending Albuquerque Center
12:32AM 33.5697 -111.6858 225° Southwest 228 262 6,200 -1,140 Descending Albuquerque Center
12:33AM 33.5328 -111.7436 233° Southwest 222 255 5,000 -984 Descending Albuquerque Center
12:34AM 33.4975 -111.7972 232° Southwest 215 247 4,200 -836 Descending Albuquerque Center
12:35AM 33.4653 -111.8461 232° Southwest 202 232 3,300 -843 Descending Albuquerque Center
12:36AM 33.4431 -111.8997 244° Southwest 194 223 2,500 -744 Descending Albuquerque Center
12:37AM 33.4419 -111.9475 268° West 163 188 1,800 -590 Descending Albuquerque Center
12:38AM 33.4414 -111.9936 269° West 144 166 1,300 -492 Descending Albuquerque Center
12:40AM 33.4333 -112.0000 243° Southwest  Level FlightAware Approximate